sensor_id;sensor_type;location;lat;lon;timestamp;pressure;altitude;pressure_sealevel;temperature;humidity
61014;BME280;46899;47.542;19.082;2022-12-16T00:01:15;99724.19;;;1.86;100.00
61014;BME280;46899;47.542;19.082;2022-12-16T00:04:18;99725.91;;;1.84;100.00
61014;BME280;46899;47.542;19.082;2022-12-16T00:07:20;99730.16;;;1.87;100.00
61014;BME280;46899;47.542;19.082;2022-12-16T00:10:22;99721.59;;;1.89;100.00
61014;BME280;46899;47.542;19.082;2022-12-16T00:13:25;99725.84;;;1.92;100.00
61014;BME280;46899;47.542;19.082;2022-12-16T00:16:28;99706.19;;;1.91;100.00
61014;BME280;46899;47.542;19.082;2022-12-16T00:19:30;99703.66;;;1.88;100.00
61014;BME280;46899;47.542;19.082;2022-12-16T00:22:33;99696.84;;;1.88;100.00
61014;BME280;46899;47.542;19.082;2022-12-16T00:25:35;99694.22;;;1.93;100.00
61014;BME280;46899;47.542;19.082;2022-12-16T00:28:38;99689.91;;;1.95;100.00
61014;BME280;46899;47.542;19.082;2022-12-16T00:31:41;99696.75;;;1.94;100.00
61014;BME280;46899;47.542;19.082;2022-12-16T00:34:43;99696.75;;;1.94;100.00
61014;BME280;46899;47.542;19.082;2022-12-16T00:37:46;99701.91;;;1.93;100.00
61014;BME280;46899;47.542;19.082;2022-12-16T00:40:48;99698.53;;;1.88;100.00
61014;BME280;46899;47.542;19.082;2022-12-16T00:43:53;99706.22;;;1.86;100.00
61014;BME280;46899;47.542;19.082;2022-12-16T00:46:55;99696.00;;;1.85;100.00
61014;BME280;46899;47.542;19.082;2022-12-16T00:49:58;99701.16;;;1.83;100.00
61014;BME280;46899;47.542;19.082;2022-12-16T00:53:00;99697.75;;;1.80;100.00
61014;BME280;46899;47.542;19.082;2022-12-16T00:56:04;99708.78;;;1.86;100.00
61014;BME280;46899;47.542;19.082;2022-12-16T00:59:07;99690.75;;;1.94;100.00
61014;BME280;46899;47.542;19.082;2022-12-16T01:02:09;99687.34;;;1.93;100.00
61014;BME280;46899;47.542;19.082;2022-12-16T01:05:14;99678.88;;;1.87;100.00
61014;BME280;46899;47.542;19.082;2022-12-16T01:08:17;99677.19;;;1.86;100.00
61014;BME280;46899;47.542;19.082;2022-12-16T01:11:19;99665.22;;;1.85;100.00
61014;BME280;46899;47.542;19.082;2022-12-16T01:14:22;99650.78;;;1.78;100.00
61014;BME280;46899;47.542;19.082;2022-12-16T01:17:24;99643.91;;;1.81;100.00
61014;BME280;46899;47.542;19.082;2022-12-16T01:20:27;99637.94;;;1.78;100.00
61014;BME280;46899;47.542;19.082;2022-12-16T01:23:32;99634.44;;;1.85;100.00
61014;BME280;46899;47.542;19.082;2022-12-16T01:26:35;99630.28;;;1.76;100.00
61014;BME280;46899;47.542;19.082;2022-12-16T01:29:38;99626.06;;;1.71;100.00
61014;BME280;46899;47.542;19.082;2022-12-16T01:32:40;99611.50;;;1.73;100.00
61014;BME280;46899;47.542;19.082;2022-12-16T01:35:43;99619.19;;;1.76;100.00
61014;BME280;46899;47.542;19.082;2022-12-16T01:38:57;99602.13;;;1.73;100.00
61014;BME280;46899;47.542;19.082;2022-12-16T01:41:59;99592.78;;;1.69;100.00
61014;BME280;46899;47.542;19.082;2022-12-16T01:48:43;99579.84;;;1.77;100.00
61014;BME280;46899;47.542;19.082;2022-12-16T01:51:46;99562.75;;;1.77;100.00
61014;BME280;46899;47.542;19.082;2022-12-16T01:55:00;99554.16;;;1.80;100.00
61014;BME280;46899;47.542;19.082;2022-12-16T01:58:14;99549.84;;;1.82;100.00
61014;BME280;46899;47.542;19.082;2022-12-16T02:01:18;99546.56;;;1.74;100.00
61014;BME280;46899;47.542;19.082;2022-12-16T02:04:21;99533.69;;;1.77;100.00
61014;BME280;46899;47.542;19.082;2022-12-16T02:07:24;99529.41;;;1.79;100.00
61014;BME280;46899;47.542;19.082;2022-12-16T02:10:38;99527.66;;;1.79;100.00
61014;BME280;46899;47.542;19.082;2022-12-16T02:13:54;99514.06;;;1.76;100.00
61014;BME280;46899;47.542;19.082;2022-12-16T02:23:25;99468.72;;;1.78;100.00
61014;BME280;46899;47.542;19.082;2022-12-16T02:36:01;99411.47;;;1.79;100.00
61014;BME280;46899;47.542;19.082;2022-12-16T02:39:11;99401.13;;;1.82;100.00
61014;BME280;46899;47.542;19.082;2022-12-16T02:42:25;99403.66;;;1.85;100.00
61014;BME280;46899;47.542;19.082;2022-12-16T02:45:31;99415.50;;;1.92;100.00
61014;BME280;46899;47.542;19.082;2022-12-16T02:48:33;99397.66;;;1.86;100.00
61014;BME280;46899;47.542;19.082;2022-12-16T02:51:37;99406.97;;;1.91;100.00
61014;BME280;46899;47.542;19.082;2022-12-16T02:54:39;99407.75;;;1.96;100.00
61014;BME280;46899;47.542;19.082;2022-12-16T03:01:05;99422.28;;;1.97;100.00
61014;BME280;46899;47.542;19.082;2022-12-16T03:07:27;99423.94;;;1.98;100.00
61014;BME280;46899;47.542;19.082;2022-12-16T03:10:34;99418.81;;;2.00;100.00
61014;BME280;46899;47.542;19.082;2022-12-16T03:13:40;99400.63;;;2.12;100.00
61014;BME280;46899;47.542;19.082;2022-12-16T03:16:44;99399.81;;;2.12;100.00
61014;BME280;46899;47.542;19.082;2022-12-16T03:19:56;99397.94;;;2.21;100.00
61014;BME280;46899;47.542;19.082;2022-12-16T03:23:04;99390.25;;;2.20;100.00
61014;BME280;46899;47.542;19.082;2022-12-16T03:26:09;99362.13;;;2.17;100.00
61014;BME280;46899;47.542;19.082;2022-12-16T03:29:15;99356.97;;;2.15;100.00
61014;BME280;46899;47.542;19.082;2022-12-16T03:32:54;99358.63;;;2.19;100.00
61014;BME280;46899;47.542;19.082;2022-12-16T03:35:49;99320.09;;;2.22;100.00
61014;BME280;46899;47.542;19.082;2022-12-16T03:38:52;99348.31;;;2.22;100.00
61014;BME280;46899;47.542;19.082;2022-12-16T03:41:56;99352.53;;;2.25;100.00
61014;BME280;46899;47.542;19.082;2022-12-16T03:44:59;99372.22;;;2.24;100.00
61014;BME280;46899;47.542;19.082;2022-12-16T03:48:05;99369.66;;;2.26;100.00
61014;BME280;46899;47.542;19.082;2022-12-16T03:51:07;99382.44;;;2.27;100.00
61014;BME280;46899;47.542;19.082;2022-12-16T03:54:10;99388.50;;;2.23;100.00
61014;BME280;46899;47.542;19.082;2022-12-16T03:57:12;99387.56;;;2.27;100.00
61014;BME280;46899;47.542;19.082;2022-12-16T04:00:17;99364.44;;;2.29;100.00
61014;BME280;46899;47.542;19.082;2022-12-16T04:03:19;99353.22;;;2.34;100.00
61014;BME280;46899;47.542;19.082;2022-12-16T04:06:24;99348.31;;;2.22;100.00
61014;BME280;46899;47.542;19.082;2022-12-16T04:09:26;99339.78;;;2.20;100.00
61014;BME280;46899;47.542;19.082;2022-12-16T04:12:31;99325.22;;;2.24;100.00
61014;BME280;46899;47.542;19.082;2022-12-16T04:15:52;99325.16;;;2.25;100.00
61014;BME280;46899;47.542;19.082;2022-12-16T04:19:17;99319.28;;;2.20;100.00
61014;BME280;46899;47.542;19.082;2022-12-16T04:22:40;99317.34;;;2.31;100.00
61014;BME280;46899;47.542;19.082;2022-12-16T04:26:03;99305.50;;;2.24;100.00
61014;BME280;46899;47.542;19.082;2022-12-16T04:29:06;99317.44;;;2.28;100.00
61014;BME280;46899;47.542;19.082;2022-12-16T04:32:08;99319.06;;;2.32;100.00
61014;BME280;46899;47.542;19.082;2022-12-16T04:35:10;99311.31;;;2.34;100.00
61014;BME280;46899;47.542;19.082;2022-12-16T04:38:32;99307.06;;;2.33;100.00
61014;BME280;46899;47.542;19.082;2022-12-16T04:41:53;99297.75;;;2.27;100.00
61014;BME280;46899;47.542;19.082;2022-12-16T04:45:31;99308.84;;;2.29;100.00
61014;BME280;46899;47.542;19.082;2022-12-16T04:48:52;99290.72;;;2.37;100.00
61014;BME280;46899;47.542;19.082;2022-12-16T04:52:13;99298.38;;;2.38;100.00
61014;BME280;46899;47.542;19.082;2022-12-16T04:55:34;99298.47;;;2.35;100.00
61014;BME280;46899;47.542;19.082;2022-12-16T04:59:03;99299.25;;;2.39;100.00
61014;BME280;46899;47.542;19.082;2022-12-16T05:02:24;99303.53;;;2.38;100.00
61014;BME280;46899;47.542;19.082;2022-12-16T05:05:45;99306.03;;;2.41;100.00
61014;BME280;46899;47.542;19.082;2022-12-16T05:09:07;99301.84;;;2.36;100.00
61014;BME280;46899;47.542;19.082;2022-12-16T05:12:28;99304.47;;;2.34;100.00
61014;BME280;46899;47.542;19.082;2022-12-16T05:15:49;99294.91;;;2.41;100.00
61014;BME280;46899;47.542;19.082;2022-12-16T05:19:10;99280.28;;;2.46;100.00
61014;BME280;46899;47.542;19.082;2022-12-16T05:22:33;99273.38;;;2.49;100.00
61014;BME280;46899;47.542;19.082;2022-12-16T05:25:54;99269.06;;;2.51;100.00
61014;BME280;46899;47.542;19.082;2022-12-16T05:29:15;99277.56;;;2.53;100.00
61014;BME280;46899;47.542;19.082;2022-12-16T05:32:37;99269.91;;;2.52;100.00
61014;BME280;46899;47.542;19.082;2022-12-16T05:35:58;99253.56;;;2.56;100.00
61014;BME280;46899;47.542;19.082;2022-12-16T05:39:19;99275.75;;;2.58;100.00
61014;BME280;46899;47.542;19.082;2022-12-16T05:42:43;99287.03;;;2.51;100.00
61014;BME280;46899;47.542;19.082;2022-12-16T05:46:04;99284.22;;;2.63;100.00
61014;BME280;46899;47.542;19.082;2022-12-16T05:49:25;99269.63;;;2.64;100.00
61014;BME280;46899;47.542;19.082;2022-12-16T05:52:53;99285.03;;;2.64;100.00
61014;BME280;46899;47.542;19.082;2022-12-16T05:56:14;99278.09;;;2.69;100.00
61014;BME280;46899;47.542;19.082;2022-12-16T05:59:36;99262.59;;;2.73;100.00
61014;BME280;46899;47.542;19.082;2022-12-16T06:02:57;99282.41;;;2.68;100.00
61014;BME280;46899;47.542;19.082;2022-12-16T06:06:26;99272.72;;;2.81;100.00
61014;BME280;46899;47.542;19.082;2022-12-16T06:09:47;99277.87;;;2.80;100.00
61014;BME280;46899;47.542;19.082;2022-12-16T06:13:08;99290.53;;;2.89;100.00
61014;BME280;46899;47.542;19.082;2022-12-16T06:16:30;99295.88;;;2.80;100.00
61014;BME280;46899;47.542;19.082;2022-12-16T06:19:51;99285.53;;;2.83;100.00
61014;BME280;46899;47.542;19.082;2022-12-16T06:23:12;99288.09;;;2.83;100.00
61014;BME280;46899;47.542;19.082;2022-12-16T06:26:34;99281.03;;;2.92;100.00
61014;BME280;46899;47.542;19.082;2022-12-16T06:29:55;99277.59;;;2.93;100.00
61014;BME280;46899;47.542;19.082;2022-12-16T06:33:16;99286.91;;;2.99;100.00
61014;BME280;46899;47.542;19.082;2022-12-16T06:36:38;99289.56;;;2.93;100.00
61014;BME280;46899;47.542;19.082;2022-12-16T06:39:59;99291.22;;;2.97;100.00
61014;BME280;46899;47.542;19.082;2022-12-16T06:43:20;99286.94;;;2.96;100.00
61014;BME280;46899;47.542;19.082;2022-12-16T06:46:41;99304.06;;;2.97;100.00
61014;BME280;46899;47.542;19.082;2022-12-16T06:50:02;99297.09;;;3.02;100.00
61014;BME280;46899;47.542;19.082;2022-12-16T06:53:23;99291.78;;;3.09;100.00
61014;BME280;46899;47.542;19.082;2022-12-16T06:56:44;99290.06;;;3.10;100.00
61014;BME280;46899;47.542;19.082;2022-12-16T07:00:06;99292.50;;;3.16;100.00
61014;BME280;46899;47.542;19.082;2022-12-16T07:03:27;99287.34;;;3.16;100.00
61014;BME280;46899;47.542;19.082;2022-12-16T07:06:48;99298.47;;;3.16;100.00
61014;BME280;46899;47.542;19.082;2022-12-16T07:10:09;99305.06;;;3.28;100.00
61014;BME280;46899;47.542;19.082;2022-12-16T07:13:31;99309.13;;;3.38;100.00
61014;BME280;46899;47.542;19.082;2022-12-16T07:16:52;99308.53;;;3.27;100.00
61014;BME280;46899;47.542;19.082;2022-12-16T07:20:18;99305.13;;;3.26;100.00
61014;BME280;46899;47.542;19.082;2022-12-16T07:23:55;99305.16;;;3.25;100.00
61014;BME280;46899;47.542;19.082;2022-12-16T07:27:17;99295.41;;;3.39;100.00
61014;BME280;46899;47.542;19.082;2022-12-16T07:30:38;99299.44;;;3.49;100.00
61014;BME280;46899;47.542;19.082;2022-12-16T07:33:59;99298.63;;;3.49;100.00
61014;BME280;46899;47.542;19.082;2022-12-16T07:37:20;99299.25;;;3.57;100.00
61014;BME280;46899;47.542;19.082;2022-12-16T07:40:41;99291.22;;;3.70;100.00
61014;BME280;46899;47.542;19.082;2022-12-16T07:44:02;99320.63;;;3.60;100.00
61014;BME280;46899;47.542;19.082;2022-12-16T07:47:24;99324.75;;;3.66;100.00
61014;BME280;46899;47.542;19.082;2022-12-16T07:50:45;99308.41;;;3.68;100.00
61014;BME280;46899;47.542;19.082;2022-12-16T07:54:06;99316.13;;;3.68;100.00
61014;BME280;46899;47.542;19.082;2022-12-16T07:57:48;99305.47;;;3.83;100.00
61014;BME280;46899;47.542;19.082;2022-12-16T08:01:09;99308.72;;;3.90;100.00
61014;BME280;46899;47.542;19.082;2022-12-16T08:04:30;99305.38;;;3.86;100.00
61014;BME280;46899;47.542;19.082;2022-12-16T08:07:52;99301.69;;;3.98;100.00
61014;BME280;46899;47.542;19.082;2022-12-16T08:11:13;99309.84;;;4.13;100.00
61014;BME280;46899;47.542;19.082;2022-12-16T08:14:33;99306.16;;;4.24;100.00
61014;BME280;46899;47.542;19.082;2022-12-16T08:17:55;99305.25;;;4.25;100.00
61014;BME280;46899;47.542;19.082;2022-12-16T08:21:16;99301.31;;;4.44;100.00
61014;BME280;46899;47.542;19.082;2022-12-16T08:24:37;99303.62;;;4.53;100.00
61014;BME280;46899;47.542;19.082;2022-12-16T08:27:58;99303.03;;;4.43;100.00
61014;BME280;46899;47.542;19.082;2022-12-16T08:31:20;99304.06;;;4.38;100.00
61014;BME280;46899;47.542;19.082;2022-12-16T08:34:41;99292.97;;;4.36;100.00
61014;BME280;46899;47.542;19.082;2022-12-16T08:38:02;99292.56;;;4.19;100.00
61014;BME280;46899;47.542;19.082;2022-12-16T08:41:23;99306.94;;;4.26;100.00
61014;BME280;46899;47.542;19.082;2022-12-16T08:44:44;99318.84;;;4.30;100.00
61014;BME280;46899;47.542;19.082;2022-12-16T08:48:05;99335.09;;;4.32;100.00
61014;BME280;46899;47.542;19.082;2022-12-16T08:51:29;99346.00;;;4.41;100.00
61014;BME280;46899;47.542;19.082;2022-12-16T08:54:50;99345.25;;;4.38;100.00
61014;BME280;46899;47.542;19.082;2022-12-16T08:58:11;99329.31;;;4.56;100.00
61014;BME280;46899;47.542;19.082;2022-12-16T09:01:32;99331.69;;;4.62;100.00
61014;BME280;46899;47.542;19.082;2022-12-16T09:04:56;99338.50;;;4.64;100.00
61014;BME280;46899;47.542;19.082;2022-12-16T09:08:17;99342.06;;;4.60;100.00
61014;BME280;46899;47.542;19.082;2022-12-16T09:11:38;99354.22;;;4.55;100.00
61014;BME280;46899;47.542;19.082;2022-12-16T09:14:59;99355.84;;;4.58;100.00
61014;BME280;46899;47.542;19.082;2022-12-16T09:18:20;99359.22;;;4.61;100.00
61014;BME280;46899;47.542;19.082;2022-12-16T09:21:42;99343.75;;;4.61;100.00
61014;BME280;46899;47.542;19.082;2022-12-16T09:25:03;99352.16;;;4.68;100.00
61014;BME280;46899;47.542;19.082;2022-12-16T09:28:24;99347.69;;;4.74;100.00
61014;BME280;46899;47.542;19.082;2022-12-16T09:31:46;99344.22;;;4.75;100.00
61014;BME280;46899;47.542;19.082;2022-12-16T09:35:07;99355.53;;;4.70;100.00
61014;BME280;46899;47.542;19.082;2022-12-16T09:38:28;99354.28;;;4.83;100.00
61014;BME280;46899;47.542;19.082;2022-12-16T09:41:59;99351.56;;;5.18;100.00
61014;BME280;46899;47.542;19.082;2022-12-16T09:45:32;99372.75;;;5.29;100.00
61014;BME280;46899;47.542;19.082;2022-12-16T09:52:24;99380.16;;;5.11;100.00
61014;BME280;46899;47.542;19.082;2022-12-16T09:55:46;99398.50;;;5.00;100.00
61014;BME280;46899;47.542;19.082;2022-12-16T09:59:12;99399.41;;;4.98;100.00
61014;BME280;46899;47.542;19.082;2022-12-16T10:02:33;99392.63;;;4.95;100.00
61014;BME280;46899;47.542;19.082;2022-12-16T10:09:49;99377.94;;;4.99;100.00
61014;BME280;46899;47.542;19.082;2022-12-16T10:16:52;99390.28;;;5.17;100.00
61014;BME280;46899;47.542;19.082;2022-12-16T10:23:44;99395.06;;;5.00;100.00
61014;BME280;46899;47.542;19.082;2022-12-16T10:27:16;99395.53;;;4.83;100.00
61014;BME280;46899;47.542;19.082;2022-12-16T10:30:41;99410.03;;;4.87;100.00
61014;BME280;46899;47.542;19.082;2022-12-16T10:34:10;99406.87;;;4.77;100.00
61014;BME280;46899;47.542;19.082;2022-12-16T10:37:34;99407.53;;;4.84;100.00
61014;BME280;46899;47.542;19.082;2022-12-16T10:40:56;99397.94;;;4.89;100.00
61014;BME280;46899;47.542;19.082;2022-12-16T10:44:28;99414.87;;;4.98;100.00
61014;BME280;46899;47.542;19.082;2022-12-16T10:47:53;99411.38;;;5.00;100.00
61014;BME280;46899;47.542;19.082;2022-12-16T10:51:16;99406.03;;;5.08;100.00
61014;BME280;46899;47.542;19.082;2022-12-16T10:54:39;99408.72;;;5.32;100.00
61014;BME280;46899;47.542;19.082;2022-12-16T10:58:14;99420.03;;;5.58;100.00
61014;BME280;46899;47.542;19.082;2022-12-16T11:01:37;99416.81;;;5.51;100.00
61014;BME280;46899;47.542;19.082;2022-12-16T11:04:59;99399.44;;;5.56;100.00
61014;BME280;46899;47.542;19.082;2022-12-16T11:08:28;99408.16;;;5.52;100.00
61014;BME280;46899;47.542;19.082;2022-12-16T11:11:50;99416.03;;;5.47;100.00
61014;BME280;46899;47.542;19.082;2022-12-16T11:18:48;99413.47;;;5.47;100.00
61014;BME280;46899;47.542;19.082;2022-12-16T11:22:21;99427.16;;;5.49;100.00
61014;BME280;46899;47.542;19.082;2022-12-16T11:25:42;99433.59;;;5.35;100.00
61014;BME280;46899;47.542;19.082;2022-12-16T11:29:13;99428.81;;;5.21;100.00
61014;BME280;46899;47.542;19.082;2022-12-16T11:32:35;99432.00;;;5.00;100.00
61014;BME280;46899;47.542;19.082;2022-12-16T11:36:03;99442.19;;;5.05;100.00
61014;BME280;46899;47.542;19.082;2022-12-16T11:39:26;99444.97;;;4.97;100.00
61014;BME280;46899;47.542;19.082;2022-12-16T11:43:03;99452.81;;;4.94;100.00
61014;BME280;46899;47.542;19.082;2022-12-16T11:46:25;99460.87;;;5.13;100.00
61014;BME280;46899;47.542;19.082;2022-12-16T11:49:47;99462.13;;;4.98;100.00
61014;BME280;46899;47.542;19.082;2022-12-16T11:53:24;99493.44;;;4.84;100.00
61014;BME280;46899;47.542;19.082;2022-12-16T11:56:46;99500.47;;;4.78;100.00
61014;BME280;46899;47.542;19.082;2022-12-16T12:00:13;99504.41;;;4.91;100.00
61014;BME280;46899;47.542;19.082;2022-12-16T12:03:37;99512.16;;;4.91;100.00
61014;BME280;46899;47.542;19.082;2022-12-16T12:07:06;99513.81;;;4.94;100.00
61014;BME280;46899;47.542;19.082;2022-12-16T12:10:53;99510.22;;;4.99;100.00
61014;BME280;46899;47.542;19.082;2022-12-16T12:21:11;99493.72;;;5.06;100.00
61014;BME280;46899;47.542;19.082;2022-12-16T12:31:31;99445.37;;;4.82;100.00
61014;BME280;46899;47.542;19.082;2022-12-16T12:35:07;99448.81;;;4.82;100.00
61014;BME280;46899;47.542;19.082;2022-12-16T12:38:46;99441.16;;;4.79;100.00
61014;BME280;46899;47.542;19.082;2022-12-16T12:52:29;99466.50;;;4.96;100.00
61014;BME280;46899;47.542;19.082;2022-12-16T12:56:03;99475.81;;;5.00;100.00
61014;BME280;46899;47.542;19.082;2022-12-16T12:59:49;99470.69;;;5.31;100.00
61014;BME280;46899;47.542;19.082;2022-12-16T13:03:53;99490.09;;;5.44;100.00
61014;BME280;46899;47.542;19.082;2022-12-16T13:06:48;99507.31;;;5.43;100.00
61014;BME280;46899;47.542;19.082;2022-12-16T13:13:40;99516.69;;;5.15;100.00
61014;BME280;46899;47.542;19.082;2022-12-16T13:17:01;99511.41;;;5.18;100.00
61014;BME280;46899;47.542;19.082;2022-12-16T13:20:34;99513.97;;;5.20;100.00
61014;BME280;46899;47.542;19.082;2022-12-16T13:23:58;99510.91;;;5.06;100.00
61014;BME280;46899;47.542;19.082;2022-12-16T13:27:45;99499.31;;;4.90;100.00
61014;BME280;46899;47.542;19.082;2022-12-16T13:31:07;99498.41;;;4.92;100.00
61014;BME280;46899;47.542;19.082;2022-12-16T13:34:29;99480.84;;;5.06;100.00
61014;BME280;46899;47.542;19.082;2022-12-16T13:37:51;99509.12;;;5.08;100.00
61014;BME280;46899;47.542;19.082;2022-12-16T13:44:53;99529.28;;;4.94;100.00
61014;BME280;46899;47.542;19.082;2022-12-16T13:51:54;99563.06;;;4.81;100.00
61014;BME280;46899;47.542;19.082;2022-12-16T13:55:18;99570.84;;;4.80;100.00
61014;BME280;46899;47.542;19.082;2022-12-16T13:58:44;99564.91;;;4.78;100.00
61014;BME280;46899;47.542;19.082;2022-12-16T14:02:13;99569.84;;;4.85;100.00
61014;BME280;46899;47.542;19.082;2022-12-16T14:05:37;99582.59;;;4.90;100.00
61014;BME280;46899;47.542;19.082;2022-12-16T14:09:02;99591.19;;;4.92;100.00
61014;BME280;46899;47.542;19.082;2022-12-16T14:19:20;99591.94;;;4.96;100.00
61014;BME280;46899;47.542;19.082;2022-12-16T14:22:54;99579.31;;;4.85;100.00
61014;BME280;46899;47.542;19.082;2022-12-16T14:26:38;99589.66;;;4.83;100.00
61014;BME280;46899;47.542;19.082;2022-12-16T14:30:00;99570.25;;;4.69;100.00
61014;BME280;46899;47.542;19.082;2022-12-16T14:33:25;99572.81;;;4.70;100.00
61014;BME280;46899;47.542;19.082;2022-12-16T14:36:47;99573.66;;;4.69;100.00
61014;BME280;46899;47.542;19.082;2022-12-16T14:40:19;99579.03;;;4.60;100.00
61014;BME280;46899;47.542;19.082;2022-12-16T14:43:41;99590.47;;;4.49;100.00
61014;BME280;46899;47.542;19.082;2022-12-16T14:47:03;99611.25;;;4.41;100.00
61014;BME280;46899;47.542;19.082;2022-12-16T14:50:25;99609.47;;;4.45;100.00
61014;BME280;46899;47.542;19.082;2022-12-16T14:53:47;99612.94;;;4.42;100.00
61014;BME280;46899;47.542;19.082;2022-12-16T14:57:26;99620.59;;;4.45;100.00
61014;BME280;46899;47.542;19.082;2022-12-16T15:00:48;99626.31;;;4.58;100.00
61014;BME280;46899;47.542;19.082;2022-12-16T15:04:17;99626.38;;;4.55;100.00
61014;BME280;46899;47.542;19.082;2022-12-16T15:07:39;99623.09;;;4.50;100.00
61014;BME280;46899;47.542;19.082;2022-12-16T15:11:02;99616.19;;;4.52;100.00
61014;BME280;46899;47.542;19.082;2022-12-16T15:14:28;99610.22;;;4.48;100.00
61014;BME280;46899;47.542;19.082;2022-12-16T15:17:54;99611.03;;;4.52;100.00
61014;BME280;46899;47.542;19.082;2022-12-16T15:21:16;99630.28;;;4.36;100.00
61014;BME280;46899;47.542;19.082;2022-12-16T15:24:37;99626.09;;;4.29;100.00
61014;BME280;46899;47.542;19.082;2022-12-16T15:27:58;99634.63;;;4.32;100.00
61014;BME280;46899;47.542;19.082;2022-12-16T15:31:24;99644.06;;;4.32;100.00
61014;BME280;46899;47.542;19.082;2022-12-16T15:34:47;99653.75;;;4.21;100.00
61014;BME280;46899;47.542;19.082;2022-12-16T15:41:36;99695.22;;;4.07;100.00
61014;BME280;46899;47.542;19.082;2022-12-16T15:44:57;99698.66;;;4.06;100.00
61014;BME280;46899;47.542;19.082;2022-12-16T15:48:26;99698.81;;;3.98;100.00
61014;BME280;46899;47.542;19.082;2022-12-16T15:51:48;99722.94;;;3.91;100.00
61014;BME280;46899;47.542;19.082;2022-12-16T15:58:49;99719.56;;;3.89;100.00
61014;BME280;46899;47.542;19.082;2022-12-16T16:02:18;99714.53;;;3.83;100.00
61014;BME280;46899;47.542;19.082;2022-12-16T16:05:40;99717.22;;;3.77;100.00
61014;BME280;46899;47.542;19.082;2022-12-16T16:09:11;99707.03;;;3.71;100.00
61014;BME280;46899;47.542;19.082;2022-12-16T16:12:33;99709.66;;;3.70;100.00
61014;BME280;46899;47.542;19.082;2022-12-16T16:15:54;99704.44;;;3.73;100.00
61014;BME280;46899;47.542;19.082;2022-12-16T16:19:20;99696.75;;;3.71;100.00
61014;BME280;46899;47.542;19.082;2022-12-16T16:22:42;99692.56;;;3.66;100.00
61014;BME280;46899;47.542;19.082;2022-12-16T16:26:03;99703.94;;;3.53;100.00
61014;BME280;46899;47.542;19.082;2022-12-16T16:29:24;99712.59;;;3.47;100.00
61014;BME280;46899;47.542;19.082;2022-12-16T16:32:45;99698.97;;;3.42;100.00
61014;BME280;46899;47.542;19.082;2022-12-16T16:36:13;99703.25;;;3.41;100.00
61014;BME280;46899;47.542;19.082;2022-12-16T16:39:34;99712.75;;;3.38;100.00
61014;BME280;46899;47.542;19.082;2022-12-16T16:42:57;99722.22;;;3.34;100.00
61014;BME280;46899;47.542;19.082;2022-12-16T16:49:40;99706.13;;;3.25;100.00
61014;BME280;46899;47.542;19.082;2022-12-16T16:53:02;99710.47;;;3.20;100.00
61014;BME280;46899;47.542;19.082;2022-12-16T16:56:23;99707.84;;;3.23;100.00
61014;BME280;46899;47.542;19.082;2022-12-16T16:59:44;99695.91;;;3.19;100.00
61014;BME280;46899;47.542;19.082;2022-12-16T17:03:05;99691.53;;;3.25;100.00
61014;BME280;46899;47.542;19.082;2022-12-16T17:06:27;99718.81;;;3.32;100.00
61014;BME280;46899;47.542;19.082;2022-12-16T17:09:48;99719.75;;;3.28;100.00
61014;BME280;46899;47.542;19.082;2022-12-16T17:13:10;99731.88;;;3.22;100.00
61014;BME280;46899;47.542;19.082;2022-12-16T17:16:31;99741.22;;;3.26;100.00
61014;BME280;46899;47.542;19.082;2022-12-16T17:19:54;99742.16;;;3.22;100.00
61014;BME280;46899;47.542;19.082;2022-12-16T17:23:15;99758.44;;;3.21;100.00
61014;BME280;46899;47.542;19.082;2022-12-16T17:26:40;99752.47;;;3.19;100.00
61014;BME280;46899;47.542;19.082;2022-12-16T17:30:02;99756.72;;;3.21;100.00
61014;BME280;46899;47.542;19.082;2022-12-16T17:33:23;99771.34;;;3.16;100.00
61014;BME280;46899;47.542;19.082;2022-12-16T17:36:44;99767.97;;;3.14;100.00
61014;BME280;46899;47.542;19.082;2022-12-16T17:40:06;99768.81;;;3.13;100.00
61014;BME280;46899;47.542;19.082;2022-12-16T17:43:27;99788.53;;;3.13;100.00
61014;BME280;46899;47.542;19.082;2022-12-16T17:46:50;99793.63;;;3.16;100.00
61014;BME280;46899;47.542;19.082;2022-12-16T17:50:11;99795.44;;;3.11;100.00
61014;BME280;46899;47.542;19.082;2022-12-16T17:53:32;99793.63;;;3.16;100.00
61014;BME280;46899;47.542;19.082;2022-12-16T17:57:01;99779.91;;;3.17;100.00
61014;BME280;46899;47.542;19.082;2022-12-16T18:00:22;99784.19;;;3.18;100.00
61014;BME280;46899;47.542;19.082;2022-12-16T18:03:43;99779.06;;;3.18;100.00
61014;BME280;46899;47.542;19.082;2022-12-16T18:07:05;99778.19;;;3.17;100.00
61014;BME280;46899;47.542;19.082;2022-12-16T18:10:26;99775.59;;;3.19;100.00
61014;BME280;46899;47.542;19.082;2022-12-16T18:13:47;99773.00;;;3.20;100.00
61014;BME280;46899;47.542;19.082;2022-12-16T18:17:08;99770.53;;;3.14;100.00
61014;BME280;46899;47.542;19.082;2022-12-16T18:20:29;99766.22;;;3.18;100.00
61014;BME280;46899;47.542;19.082;2022-12-16T18:23:50;99767.19;;;3.08;100.00
61014;BME280;46899;47.542;19.082;2022-12-16T18:27:11;99774.94;;;3.05;100.00
61014;BME280;46899;47.542;19.082;2022-12-16T18:30:32;99777.56;;;3.00;100.00
61014;BME280;46899;47.542;19.082;2022-12-16T18:33:55;99780.91;;;3.07;100.00
61014;BME280;46899;47.542;19.082;2022-12-16T18:37:16;99789.53;;;3.03;100.00
61014;BME280;46899;47.542;19.082;2022-12-16T18:40:37;99783.56;;;3.01;100.00
61014;BME280;46899;47.542;19.082;2022-12-16T18:44:00;99775.84;;;3.04;100.00
61014;BME280;46899;47.542;19.082;2022-12-16T18:47:20;99793.88;;;2.98;100.00
61014;BME280;46899;47.542;19.082;2022-12-16T18:50:41;99795.69;;;2.91;100.00
61014;BME280;46899;47.542;19.082;2022-12-16T18:54:03;99807.69;;;2.91;100.00
61014;BME280;46899;47.542;19.082;2022-12-16T18:57:24;99812.78;;;2.94;100.00